createdAt,value
2023-02-28T00:02:31.033Z,10.00
2023-02-28T00:06:05.648Z,9.70
2023-02-28T00:09:40.017Z,11.10
2023-02-28T00:13:13.931Z,10.30
2023-02-28T00:16:51.201Z,12.30
2023-02-28T00:20:27.276Z,11.20
2023-02-28T00:24:01.578Z,10.80
2023-02-28T00:28:19.883Z,12.30
2023-02-28T00:32:28.161Z,8.90
2023-02-28T00:36:02.639Z,10.20
2023-02-28T00:39:40.782Z,8.40
2023-02-28T00:43:10.582Z,13.90
2023-02-28T00:46:49.860Z,13.20
2023-02-28T00:50:24.586Z,12.00
2023-02-28T00:54:19.387Z,13.60
2023-02-28T00:58:37.918Z,12.60
2023-02-28T01:05:49.517Z,13.90
2023-02-28T01:09:01.561Z,12.50
2023-02-28T01:12:36.088Z,9.90
2023-02-28T01:16:30.090Z,9.80
2023-02-28T01:20:12.652Z,12.10
2023-02-28T01:23:32.807Z,11.30
2023-02-28T01:27:32.401Z,11.00
2023-02-28T01:31:10.982Z,10.20
2023-02-28T01:34:45.330Z,12.40
2023-02-28T01:38:22.280Z,10.90
2023-02-28T01:42:16.691Z,13.00
2023-02-28T01:46:03.743Z,8.60
2023-02-28T01:50:23.507Z,13.00
2023-02-28T01:54:45.172Z,10.60
2023-02-28T01:59:14.262Z,14.20
2023-02-28T02:03:07.912Z,14.80
2023-02-28T02:06:41.883Z,14.40
2023-02-28T02:10:22.243Z,12.20
2023-02-28T02:14:22.470Z,12.40
2023-02-28T02:18:02.573Z,14.50
2023-02-28T02:21:45.939Z,13.70
2023-02-28T02:26:01.458Z,13.80
2023-02-28T02:30:13.509Z,13.80
2023-02-28T02:34:36.896Z,16.50
2023-02-28T02:37:39.488Z,14.70
2023-02-28T02:42:19.389Z,14.80
2023-02-28T02:45:57.641Z,14.40
2023-02-28T02:49:34.656Z,13.30
2023-02-28T02:54:03.712Z,13.00
2023-02-28T02:57:42.498Z,14.50
2023-02-28T03:01:22.906Z,15.10
2023-02-28T03:05:01.361Z,12.10
2023-02-28T03:08:47.386Z,14.90
2023-02-28T03:13:05.777Z,16.60
2023-02-28T03:16:57.052Z,15.40
2023-02-28T03:20:36.299Z,16.00
2023-02-28T03:24:17.766Z,16.70
2023-02-28T03:28:02.860Z,16.60
2023-02-28T03:31:43.366Z,15.40
2023-02-28T03:35:14.427Z,15.40
2023-02-28T03:38:50.687Z,15.90
2023-02-28T03:43:07.696Z,17.80
2023-02-28T03:46:42.201Z,17.60
2023-02-28T03:50:21.707Z,16.70
2023-02-28T03:53:56.375Z,17.10
2023-02-28T03:57:42.667Z,22.90
2023-02-28T04:01:19.704Z,17.90
2023-02-28T04:04:49.996Z,17.70
2023-02-28T04:08:27.697Z,17.40
2023-02-28T04:12:45.659Z,16.80
2023-02-28T04:16:35.918Z,10.00
2023-02-28T04:20:21.489Z,9.80
2023-02-28T04:23:55.802Z,11.40
2023-02-28T04:27:28.244Z,10.50
2023-02-28T04:31:10.813Z,9.40
2023-02-28T04:35:06.945Z,9.80
2023-02-28T04:39:16.616Z,8.30
2023-02-28T04:43:45.709Z,7.20
2023-02-28T04:47:33.660Z,6.90
2023-02-28T04:51:11.935Z,9.30
2023-02-28T04:55:23.551Z,5.50
2023-02-28T04:59:41.563Z,11.20
2023-02-28T05:06:42.610Z,13.70
2023-02-28T05:11:00.568Z,9.60
2023-02-28T05:14:31.314Z,20.60
2023-02-28T05:18:02.269Z,11.50
2023-02-28T05:21:36.325Z,7.70
2023-02-28T05:25:54.577Z,11.70
2023-02-28T05:29:39.249Z,11.40
2023-02-28T05:33:16.519Z,11.50
2023-02-28T05:36:50.568Z,11.40
2023-02-28T05:43:42.555Z,10.30
2023-02-28T05:47:00.750Z,8.90
2023-02-28T05:50:51.575Z,5.70
2023-02-28T05:54:25.472Z,10.50
2023-02-28T05:57:59.516Z,10.20
2023-02-28T06:00:57.517Z,11.80
2023-02-28T06:03:26.550Z,10.80
2023-02-28T06:05:55.450Z,15.90
2023-02-28T06:08:23.795Z,15.80
2023-02-28T06:10:51.999Z,6.60
2023-02-28T06:13:21.382Z,12.20
2023-02-28T06:15:51.414Z,11.30
2023-02-28T06:21:33.075Z,12.30
2023-02-28T06:24:15.176Z,11.90
2023-02-28T06:26:45.220Z,9.10
2023-02-28T06:29:31.261Z,10.40
2023-02-28T06:37:57.460Z,12.20
2023-02-28T06:41:00.019Z,8.60
2023-02-28T06:44:08.366Z,9.60
2023-02-28T06:47:08.140Z,6.00
2023-02-28T06:52:20.783Z,10.80
2023-02-28T06:55:00.776Z,10.80
2023-02-28T06:57:42.916Z,9.80
2023-02-28T07:00:26.125Z,10.70
2023-02-28T07:02:56.446Z,11.50
2023-02-28T07:05:25.025Z,11.80
2023-02-28T07:07:53.761Z,11.30
2023-02-28T07:10:22.089Z,12.90
2023-02-28T07:12:50.229Z,12.80
2023-02-28T07:15:32.332Z,12.80
2023-02-28T07:24:07.869Z,9.40
2023-02-28T07:26:36.043Z,11.00
2023-02-28T07:29:17.980Z,11.90
2023-02-28T07:32:00.104Z,12.40
2023-02-28T07:37:47.386Z,12.10
2023-02-28T07:40:21.566Z,12.00
2023-02-28T07:43:05.248Z,11.50
2023-02-28T07:45:35.735Z,9.00
2023-02-28T07:48:04.610Z,9.30
2023-02-28T07:50:33.083Z,10.00
2023-02-28T07:53:01.736Z,11.80
2023-02-28T07:55:29.969Z,12.80
2023-02-28T07:58:12.075Z,12.80
2023-02-28T08:00:40.434Z,12.10
2023-02-28T08:03:15.552Z,11.90
2023-02-28T08:05:57.673Z,11.20
2023-02-28T08:08:30.329Z,7.90
2023-02-28T08:11:12.505Z,10.40
2023-02-28T08:13:41.197Z,10.00
2023-02-28T08:21:47.371Z,10.50
2023-02-28T08:24:15.891Z,10.50
2023-02-28T08:26:58.051Z,9.90
2023-02-28T08:29:27.616Z,10.80
2023-02-28T08:31:56.131Z,10.10
2023-02-28T08:34:24.649Z,10.60
2023-02-28T08:37:06.794Z,11.20
2023-02-28T08:39:37.135Z,10.40
2023-02-28T08:45:01.701Z,10.30
2023-02-28T08:47:29.969Z,10.40
2023-02-28T08:49:58.453Z,10.50
2023-02-28T08:52:26.968Z,7.10
2023-02-28T08:54:55.784Z,10.20
2023-02-28T08:57:42.868Z,8.30
2023-02-28T09:03:09.970Z,10.30
2023-02-28T09:05:38.477Z,7.20
2023-02-28T09:08:07.562Z,6.30
2023-02-28T09:13:35.964Z,4.10
2023-02-28T09:16:08.732Z,4.70
2023-02-28T09:18:50.754Z,4.10
2023-02-28T09:24:29.507Z,5.60
2023-02-28T09:27:04.776Z,5.40
2023-02-28T09:29:47.645Z,5.30
2023-02-28T09:32:29.833Z,6.60
2023-02-28T09:34:58.246Z,5.60
2023-02-28T09:37:30.486Z,5.70
2023-02-28T09:39:59.372Z,6.10
2023-02-28T09:42:42.208Z,5.80
2023-02-28T09:45:41.727Z,7.30
2023-02-28T09:48:24.739Z,6.70
2023-02-28T09:51:31.889Z,6.70
2023-02-28T09:54:05.174Z,4.70
2023-02-28T09:59:55.990Z,5.90
2023-02-28T10:03:09.022Z,6.40
2023-02-28T10:06:10.678Z,6.40
2023-02-28T10:09:07.568Z,8.00
2023-02-28T10:11:51.486Z,6.90
2023-02-28T10:14:41.946Z,6.20
2023-02-28T10:17:27.307Z,7.40
2023-02-28T10:20:21.352Z,5.60
2023-02-28T10:23:09.164Z,5.90
2023-02-28T10:25:55.060Z,8.10
2023-02-28T10:28:35.213Z,7.50
2023-02-28T10:31:06.394Z,7.10
2023-02-28T10:33:42.186Z,7.70
2023-02-28T10:36:26.928Z,7.20
2023-02-28T10:39:54.293Z,8.50
2023-02-28T10:42:50.892Z,7.40
2023-02-28T10:45:42.730Z,7.40
2023-02-28T10:48:23.430Z,6.80
2023-02-28T10:51:06.650Z,6.90
2023-02-28T10:54:05.027Z,3.10
2023-02-28T10:57:00.959Z,5.20
2023-02-28T11:00:30.861Z,6.50
2023-02-28T11:03:47.267Z,7.10
2023-02-28T11:06:39.584Z,7.10
2023-02-28T11:12:52.633Z,6.90
2023-02-28T11:15:43.315Z,6.50
2023-02-28T11:18:57.551Z,6.30
2023-02-28T11:22:01.009Z,6.00
2023-02-28T11:24:40.483Z,7.00
2023-02-28T11:27:50.994Z,6.00
2023-02-28T11:30:35.684Z,7.00
2023-02-28T11:33:46.771Z,6.20
2023-02-28T11:36:26.702Z,6.50
2023-02-28T11:39:17.580Z,4.60
2023-02-28T11:41:58.840Z,5.10
2023-02-28T11:44:59.631Z,4.80
2023-02-28T11:48:05.975Z,5.50
2023-02-28T11:50:50.937Z,6.40
2023-02-28T11:53:59.033Z,6.70
2023-02-28T11:56:38.222Z,5.70
2023-02-28T11:59:37.831Z,5.50
2023-02-28T12:02:43.910Z,5.30
2023-02-28T12:05:15.127Z,6.90
2023-02-28T12:08:08.954Z,6.50
2023-02-28T12:11:00.994Z,5.60
2023-02-28T12:13:35.297Z,5.20
2023-02-28T12:19:16.148Z,4.30
2023-02-28T12:22:27.946Z,6.00
2023-02-28T12:25:45.134Z,6.30
2023-02-28T12:28:19.003Z,5.60
2023-02-28T12:31:29.683Z,5.70
2023-02-28T12:34:21.708Z,5.90
2023-02-28T12:37:17.089Z,6.80
2023-02-28T12:42:57.927Z,5.40
2023-02-28T12:45:43.360Z,6.50
2023-02-28T12:48:58.001Z,5.50
2023-02-28T12:51:28.624Z,6.00
2023-02-28T12:57:37.768Z,5.90
2023-02-28T13:00:17.978Z,5.50
2023-02-28T13:06:30.504Z,5.00
2023-02-28T13:09:06.147Z,6.70
2023-02-28T13:11:46.569Z,4.80
2023-02-28T13:14:24.014Z,6.70
2023-02-28T13:17:04.480Z,6.20
2023-02-28T13:19:56.357Z,6.80
2023-02-28T13:22:57.077Z,6.90
2023-02-28T13:25:51.183Z,8.00
2023-02-28T13:28:50.250Z,8.10
2023-02-28T13:31:20.569Z,8.40
2023-02-28T13:34:08.305Z,8.30
2023-02-28T13:36:40.936Z,6.20
2023-02-28T13:39:39.345Z,5.30
2023-02-28T13:42:42.627Z,6.80
2023-02-28T13:45:44.908Z,6.60
2023-02-28T13:51:54.742Z,6.00
2023-02-28T13:54:40.847Z,7.60
2023-02-28T13:57:42.630Z,7.20
2023-02-28T14:00:35.343Z,7.60
2023-02-28T14:12:51.041Z,6.50
2023-02-28T14:15:49.341Z,6.60
2023-02-28T14:18:38.809Z,6.80
2023-02-28T14:21:30.335Z,6.20
2023-02-28T14:24:51.144Z,5.20
2023-02-28T14:27:39.046Z,6.90
2023-02-28T14:30:49.743Z,6.60
2023-02-28T14:33:35.256Z,5.30
2023-02-28T14:39:27.669Z,6.90
2023-02-28T14:41:55.994Z,7.10
2023-02-28T14:44:28.215Z,4.30
2023-02-28T14:47:17.600Z,7.30
2023-02-28T14:50:02.024Z,7.40
2023-02-28T14:52:44.836Z,7.30
2023-02-28T14:55:21.263Z,9.00
2023-02-28T14:58:00.632Z,8.10
2023-02-28T15:00:32.951Z,8.00
2023-02-28T15:03:32.635Z,6.10
2023-02-28T15:06:18.749Z,6.00
2023-02-28T15:08:47.969Z,8.00
2023-02-28T15:11:20.366Z,7.40
2023-02-28T15:13:53.489Z,7.40
2023-02-28T15:16:44.682Z,9.80
2023-02-28T15:19:35.395Z,6.50
2023-02-28T15:22:30.208Z,6.60
2023-02-28T15:24:59.250Z,7.70
2023-02-28T15:27:50.311Z,6.40
2023-02-28T15:33:33.990Z,7.10
2023-02-28T15:36:27.203Z,6.00
2023-02-28T15:39:16.014Z,6.50
2023-02-28T15:41:46.197Z,6.00
2023-02-28T15:44:31.125Z,7.30
2023-02-28T15:47:25.076Z,8.40
2023-02-28T15:50:02.057Z,7.60
2023-02-28T15:52:44.310Z,9.90
2023-02-28T15:55:29.776Z,11.20
2023-02-28T15:58:03.889Z,9.90
2023-02-28T16:00:34.160Z,10.00
2023-02-28T16:03:02.763Z,11.20
2023-02-28T16:05:36.635Z,14.90
2023-02-28T16:08:16.464Z,9.50
2023-02-28T16:10:58.637Z,8.70
2023-02-28T16:13:27.677Z,8.90
2023-02-28T16:15:56.096Z,8.70
2023-02-28T16:18:38.262Z,8.60
2023-02-28T16:21:20.267Z,9.20
2023-02-28T16:24:03.850Z,9.00
2023-02-28T16:26:35.419Z,8.30
2023-02-28T16:29:05.074Z,8.40
2023-02-28T16:31:39.272Z,8.60
2023-02-28T16:34:22.652Z,12.00
2023-02-28T16:36:52.364Z,12.30
2023-02-28T16:42:29.795Z,17.50
2023-02-28T16:44:59.161Z,26.70
2023-02-28T16:47:41.332Z,37.10
2023-02-28T16:50:26.341Z,27.90
2023-02-28T16:53:08.413Z,56.70
2023-02-28T16:55:52.156Z,31.40
2023-02-28T16:58:23.025Z,36.30
2023-02-28T17:00:51.913Z,24.80
2023-02-28T17:03:38.740Z,37.80
2023-02-28T17:06:23.502Z,45.30
2023-02-28T17:11:34.993Z,26.30
2023-02-28T17:14:03.611Z,18.80
2023-02-28T17:16:37.935Z,15.00
2023-02-28T17:19:12.112Z,14.10
2023-02-28T17:21:46.135Z,13.80
2023-02-28T17:24:30.354Z,15.30
2023-02-28T17:27:00.044Z,17.30
2023-02-28T17:29:28.648Z,16.90
2023-02-28T17:31:58.921Z,15.60
2023-02-28T17:34:29.314Z,15.00
2023-02-28T17:36:57.791Z,14.20
2023-02-28T17:39:26.424Z,14.30
2023-02-28T17:41:56.952Z,13.70
2023-02-28T17:44:26.447Z,14.40
2023-02-28T17:46:57.355Z,15.90
2023-02-28T17:49:26.157Z,15.70
2023-02-28T17:51:54.697Z,30.70
2023-02-28T17:54:23.215Z,21.20
2023-02-28T17:56:51.825Z,37.20
2023-02-28T17:59:20.495Z,26.30
2023-02-28T18:01:49.097Z,24.60
2023-02-28T18:04:31.306Z,17.30
2023-02-28T18:07:01.262Z,20.70
2023-02-28T18:09:43.417Z,19.40
2023-02-28T18:12:25.739Z,22.30
2023-02-28T18:17:37.352Z,24.20
2023-02-28T18:20:07.200Z,23.00
2023-02-28T18:22:37.083Z,20.70
2023-02-28T18:25:20.900Z,20.50
2023-02-28T18:28:03.125Z,18.90
2023-02-28T18:30:37.722Z,18.70
2023-02-28T18:33:06.307Z,19.00
2023-02-28T18:35:35.290Z,20.00
2023-02-28T18:38:22.893Z,18.10
2023-02-28T18:40:59.444Z,20.00
2023-02-28T18:43:30.418Z,20.60
2023-02-28T18:46:16.995Z,19.90
2023-02-28T18:48:46.451Z,24.10
2023-02-28T18:51:30.731Z,22.60
2023-02-28T18:54:00.442Z,21.20
2023-02-28T19:01:54.622Z,19.60
2023-02-28T19:04:23.291Z,20.70
2023-02-28T19:07:05.361Z,20.70
2023-02-28T19:09:47.560Z,20.10
2023-02-28T19:15:13.898Z,20.90
2023-02-28T19:17:43.624Z,21.20
2023-02-28T19:20:15.341Z,19.80
2023-02-28T19:22:44.689Z,21.30
2023-02-28T19:25:13.030Z,21.80
2023-02-28T19:27:57.107Z,15.70
2023-02-28T19:30:39.466Z,13.60
2023-02-28T19:33:07.889Z,11.20
2023-02-28T19:35:36.317Z,9.70
2023-02-28T19:38:04.963Z,14.50
2023-02-28T19:40:33.529Z,12.60
2023-02-28T19:43:04.229Z,11.80
2023-02-28T19:45:35.118Z,11.80
2023-02-28T19:48:04.699Z,12.30
2023-02-28T19:50:33.205Z,15.20
2023-02-28T19:53:02.663Z,16.80
2023-02-28T19:55:31.231Z,16.00
2023-02-28T19:57:59.558Z,16.60
2023-02-28T20:00:29.482Z,8.70
2023-02-28T20:02:58.021Z,11.80
2023-02-28T20:05:26.836Z,13.70
2023-02-28T20:07:55.291Z,15.00
2023-02-28T20:10:23.834Z,12.30
2023-02-28T20:12:52.826Z,15.50
2023-02-28T20:15:21.331Z,17.40
2023-02-28T20:17:49.854Z,15.40
2023-02-28T20:20:18.636Z,15.30
2023-02-28T20:22:47.713Z,18.30
2023-02-28T20:25:17.329Z,13.50
2023-02-28T20:28:00.600Z,14.70
2023-02-28T20:30:29.928Z,15.60
2023-02-28T20:32:59.130Z,12.40
2023-02-28T20:35:27.675Z,18.40
2023-02-28T20:37:56.840Z,17.90
2023-02-28T20:40:25.693Z,20.70
2023-02-28T20:43:09.162Z,20.70
2023-02-28T20:48:43.995Z,16.80
2023-02-28T20:51:12.438Z,17.50
2023-02-28T20:53:54.655Z,15.10
2023-02-28T20:56:24.394Z,14.80
2023-02-28T20:59:06.617Z,14.90
2023-02-28T21:04:44.951Z,17.20
2023-02-28T21:07:29.142Z,16.80
2023-02-28T21:10:12.240Z,14.70
2023-02-28T21:12:40.625Z,17.70
2023-02-28T21:15:09.929Z,11.00
2023-02-28T21:17:52.144Z,16.50
2023-02-28T21:20:23.213Z,18.20
2023-02-28T21:26:06.161Z,11.30
2023-02-28T21:29:00.584Z,12.00
2023-02-28T21:31:43.609Z,14.70
2023-02-28T21:34:27.110Z,6.60
2023-02-28T21:37:09.085Z,11.30
2023-02-28T21:42:47.454Z,17.50
2023-02-28T21:45:29.595Z,17.90
2023-02-28T21:48:11.687Z,19.50
2023-02-28T21:50:59.495Z,18.50
2023-02-28T21:53:42.955Z,17.00
2023-02-28T21:59:02.282Z,16.90
2023-02-28T22:01:45.816Z,18.00
2023-02-28T22:04:27.964Z,16.00
2023-02-28T22:07:10.008Z,17.60
2023-02-28T22:09:51.991Z,15.10
2023-02-28T22:12:34.209Z,15.00
2023-02-28T22:15:16.388Z,15.60
2023-02-28T22:17:45.358Z,14.90
2023-02-28T22:20:13.682Z,7.60
2023-02-28T22:22:55.983Z,14.10
2023-02-28T22:25:24.524Z,16.80
2023-02-28T22:27:52.852Z,17.90
2023-02-28T22:30:21.135Z,23.70
2023-02-28T22:33:03.385Z,24.10
2023-02-28T22:35:31.617Z,22.10
2023-02-28T22:37:59.714Z,20.90
2023-02-28T22:40:27.955Z,21.10
2023-02-28T22:42:56.124Z,27.50
2023-02-28T22:45:40.073Z,24.30
2023-02-28T22:48:22.090Z,25.90
2023-02-28T22:51:15.027Z,28.10
2023-02-28T22:53:46.371Z,33.50
2023-02-28T22:56:30.362Z,35.20
2023-02-28T22:59:55.167Z,35.50
2023-02-28T23:04:06.512Z,35.50
2023-02-28T23:07:49.519Z,36.80
2023-02-28T23:11:25.167Z,37.30
2023-02-28T23:15:07.386Z,31.70
2023-02-28T23:18:36.722Z,36.20
2023-02-28T23:22:54.611Z,37.00
2023-02-28T23:27:23.668Z,40.10
2023-02-28T23:31:09.607Z,32.90
2023-02-28T23:34:28.445Z,27.70
2023-02-28T23:38:18.287Z,36.00
2023-02-28T23:42:02.658Z,30.10
2023-02-28T23:45:38.367Z,36.00
2023-02-28T23:49:06.682Z,36.80
2023-02-28T23:52:36.471Z,33.70
2023-02-28T23:56:02.436Z,32.90
